Jackson Hole Airport
KJAC : now visible

Airfield :











YOU CAN JOIN US ON...

 
LOGIN :

Register | Disclaimer

   EN    FR    IT 

 









Legend :    VFR   Marginal VFR   IFR   Intensive IFR   Very Intensive IFR
Visi :
Ceiling :
>= 8 km
>= 3000ft
5 to 8 km
1000 to 3000 ft
1500m to 5 km
500 to 1000 ft
800 to 1500m
200 to 500 ft
< 800m
< 200 ft
Symbols :   Thunderstorms  Fog  Heavy snow  Heavy precipitations  Wind > 20 kt







- Airport Elevation : 6451 ft
- IATA code : JAC


KJAC - Jackson Hole

CURRENT METAR :
  • 162056Z 23012G17KT 10SM FEW100 22/04 A2993 RMK AO2 LTG DSNT N AND NW TSB16E50 SLP090 T02170044 56020

EXPIRED METARs :
  • 162039Z 24015KT 10SM VCTS FEW090 SCT110 22/04 A2993 RMK AO2 LTG DSNT SW-N TSB16
  • 162022Z 23011KT 10SM VCTS FEW080 SCT110 22/04 A2993 RMK AO2 LTG DSNT SW AND NW TSB16
  • 161956Z 23013G16KT 10SM FEW120 24/03 A2994 RMK AO2 LTG DSNT SW AND NW SLP088 T02390033
  • 161856Z 28009KT 10SM BKN110 22/04 A2997 RMK AO2 SLP103 T02220044

TAF KJAC
Valid from the 16 at 18:00 until the 17 at 18:00 UTC


161733Z 1618/1718 19009KT P6SM SCT100
FM162000 19015G25KT P6SM VCSH SCT070 BKN120
FM170100 20010KT P6SM SCT100 BKN150
FM170800 20007KT P6SM VCSH BKN060 AMD LTD TO CLD VIS AND WIND
No reported NOTAMs for that airfield.



MET'MAP, your aeronautical weather chart ! - Copyright ORBIFLY December 2007 - Disclaimer

ORBIFLY MET'MAP TEAM :

Programming & Development : Alexandra Zaïnal
Concept & Development : Baudouin d'Aumeries
Co-Development & Prog : Marc-Olivier Méhu
Technical & hardware support : Manuel Goepfert

Contact : metmap@orbifly.com




SOURCES & CREDITS :

   NOAA       Earth
Advisory